createdAt,value
2018-09-09T11:49:31.957Z,2.80
2018-09-09T11:52:00.280Z,2.57
2018-09-09T11:54:28.678Z,3.20
2018-09-09T11:56:57.231Z,3.20
2018-09-09T11:59:25.547Z,3.50
2018-09-09T12:01:53.923Z,3.20
2018-09-09T12:04:22.234Z,3.37
2018-09-09T12:06:50.788Z,2.90
2018-09-09T12:09:19.118Z,3.20
2018-09-09T12:11:47.465Z,3.50
2018-09-09T12:14:16.810Z,3.50
2018-09-09T12:16:45.121Z,3.23
2018-09-09T12:19:13.405Z,3.13
2018-09-09T12:21:41.771Z,2.87
2018-09-09T12:24:10.119Z,3.23
2018-09-09T12:26:38.477Z,2.47
2018-09-09T12:29:07.057Z,2.93
2018-09-09T12:31:35.387Z,3.37
2018-09-09T12:34:03.711Z,3.10
2018-09-09T12:36:33.051Z,2.90
2018-09-09T12:39:01.377Z,3.27
2018-09-09T12:41:29.952Z,3.07
2018-09-09T12:44:03.685Z,3.80
2018-09-09T12:46:37.323Z,2.97
2018-09-09T12:49:07.017Z,3.17
2018-09-09T12:51:35.377Z,3.20
2018-09-09T12:54:03.735Z,3.40
2018-09-09T12:56:32.124Z,3.10
2018-09-09T12:59:04.556Z,3.80
2018-09-09T13:01:34.445Z,5.17
2018-09-09T13:04:03.835Z,13.07
2018-09-09T13:06:32.233Z,11.03
2018-09-09T13:09:00.583Z,7.87
2018-09-09T13:11:32.927Z,6.30
2018-09-09T13:14:02.268Z,4.83
2018-09-09T13:16:30.626Z,5.83
2018-09-09T13:18:59.024Z,4.50
2018-09-09T13:21:27.330Z,5.13
2018-09-09T13:23:55.692Z,5.90
2018-09-09T13:26:24.126Z,5.80
2018-09-09T13:28:53.108Z,6.80
2018-09-09T13:31:21.446Z,6.00
2018-09-09T13:33:55.612Z,5.37
2018-09-09T13:39:39.800Z,7.37
2018-09-09T13:42:15.395Z,6.80
2018-09-09T13:44:45.371Z,6.70
2018-09-09T13:47:13.882Z,6.37
2018-09-09T13:49:44.239Z,6.93
2018-09-09T13:52:12.635Z,7.27
2018-09-09T13:54:41.318Z,7.77
2018-09-09T13:57:09.743Z,7.70
2018-09-09T13:59:38.135Z,12.37
2018-09-09T14:02:06.479Z,12.23
2018-09-09T14:04:34.854Z,10.30
2018-09-09T14:07:03.190Z,21.60
2018-09-09T14:09:32.684Z,26.03
2018-09-09T14:12:01.354Z,28.07
2018-09-09T14:14:29.802Z,36.53
2018-09-09T14:16:58.369Z,30.20
2018-09-09T14:19:26.697Z,32.37
2018-09-09T14:21:56.679Z,32.17
2018-09-09T14:24:26.836Z,20.80
2018-09-09T14:26:55.229Z,29.00
2018-09-09T14:29:23.692Z,37.37
2018-09-09T14:31:52.073Z,31.13
2018-09-09T14:34:20.487Z,25.70
2018-09-09T14:36:49.303Z,24.60
2018-09-09T14:39:18.809Z,25.53
2018-09-09T14:41:47.334Z,23.97
2018-09-09T14:44:15.718Z,21.00
2018-09-09T14:46:44.074Z,18.73
2018-09-09T14:49:12.903Z,19.70
2018-09-09T14:51:41.258Z,21.00
2018-09-09T14:54:09.626Z,26.33
2018-09-09T14:56:37.974Z,19.13
2018-09-09T14:59:07.339Z,15.23
2018-09-09T15:01:35.725Z,22.30
2018-09-09T15:04:04.090Z,24.90
2018-09-09T15:06:32.431Z,13.77
2018-09-09T15:09:00.805Z,31.10
2018-09-09T15:11:29.228Z,25.47
2018-09-09T15:13:57.583Z,32.17
2018-09-09T15:16:26.040Z,29.37
2018-09-09T15:18:54.382Z,17.90
2018-09-09T15:21:23.788Z,42.63
2018-09-09T15:23:52.182Z,56.87
2018-09-09T15:26:20.598Z,24.83
2018-09-09T15:28:49.047Z,18.30
2018-09-09T15:31:17.334Z,31.10
2018-09-09T15:33:46.677Z,24.43
2018-09-09T15:36:15.005Z,34.67
2018-09-09T15:38:43.367Z,30.83
2018-09-09T15:41:11.732Z,59.20
2018-09-09T15:43:40.142Z,87.30
2018-09-09T15:46:08.658Z,39.93
2018-09-09T15:48:37.043Z,73.07
2018-09-09T15:51:05.402Z,37.00
2018-09-09T15:53:33.757Z,85.33
2018-09-09T15:56:02.219Z,51.67
2018-09-09T15:58:30.551Z,34.20
2018-09-09T16:00:58.974Z,99.10
2018-09-09T16:03:27.333Z,78.20
2018-09-09T16:05:56.665Z,47.53
2018-09-09T16:08:24.986Z,92.67
2018-09-09T16:10:53.322Z,102.37
2018-09-09T16:13:22.056Z,69.47
2018-09-09T16:15:50.426Z,53.87
2018-09-09T16:18:18.857Z,80.40
2018-09-09T16:20:47.213Z,100.03
2018-09-09T16:23:15.594Z,66.60
2018-09-09T16:25:43.936Z,132.70
2018-09-09T16:28:12.285Z,56.10
2018-09-09T16:30:40.661Z,82.17
2018-09-09T16:33:08.974Z,65.37
2018-09-09T16:35:37.281Z,74.40
2018-09-09T16:38:05.685Z,97.43
2018-09-09T16:40:34.726Z,86.50
2018-09-09T16:43:03.054Z,100.07
2018-09-09T16:45:31.413Z,111.40
2018-09-09T16:47:59.755Z,89.13
2018-09-09T16:50:28.123Z,81.93
2018-09-09T16:52:56.471Z,88.20
2018-09-09T16:55:24.794Z,63.37
2018-09-09T16:57:53.146Z,50.07
2018-09-09T17:00:21.527Z,125.00
2018-09-09T17:02:49.832Z,72.80
2018-09-09T17:05:19.185Z,137.83
2018-09-09T17:07:47.529Z,95.23
2018-09-09T17:10:15.859Z,95.50
2018-09-09T17:12:44.219Z,39.00
2018-09-09T17:15:12.621Z,87.00
2018-09-09T17:17:40.987Z,53.83
2018-09-09T17:20:09.344Z,98.90
2018-09-09T17:22:37.707Z,61.50
2018-09-09T17:25:06.118Z,97.03
2018-09-09T17:27:34.484Z,41.83
2018-09-09T17:30:03.927Z,108.97
2018-09-09T17:32:32.281Z,58.10
2018-09-09T17:35:00.680Z,54.93
2018-09-09T17:37:29.026Z,51.67
2018-09-09T17:39:57.407Z,66.67
2018-09-09T17:42:25.777Z,44.20
2018-09-09T17:44:55.221Z,67.57
2018-09-09T17:47:23.595Z,53.17
2018-09-09T17:49:51.998Z,54.57
2018-09-09T17:52:20.379Z,52.27
2018-09-09T17:54:48.741Z,45.33
2018-09-09T17:57:17.142Z,57.80
2018-09-09T17:59:45.527Z,50.77
2018-09-09T18:02:13.898Z,51.30
2018-09-09T18:04:42.267Z,45.63
2018-09-09T18:07:10.623Z,50.80
2018-09-09T18:09:39.011Z,45.07
2018-09-09T18:12:07.337Z,46.60
2018-09-09T18:14:35.678Z,41.20
2018-09-09T18:17:04.029Z,40.60
2018-09-09T18:19:32.420Z,52.10
2018-09-09T18:22:00.762Z,42.97
2018-09-09T18:24:29.153Z,43.57
2018-09-09T18:26:57.577Z,42.97
2018-09-09T18:29:25.975Z,30.30
2018-09-09T18:31:54.335Z,26.83
2018-09-09T18:34:22.642Z,41.20
2018-09-09T18:36:51.025Z,35.37
2018-09-09T18:39:19.338Z,29.00
2018-09-09T18:41:47.666Z,22.10
2018-09-09T18:44:16.004Z,27.10
2018-09-09T18:46:45.377Z,24.70
2018-09-09T18:49:13.781Z,19.17
2018-09-09T18:51:42.133Z,27.63
2018-09-09T18:54:10.453Z,34.20
2018-09-09T18:56:38.787Z,34.00
2018-09-09T18:59:07.103Z,19.30
2018-09-09T19:01:35.430Z,19.53
2018-09-09T19:04:03.788Z,12.50
2018-09-09T19:06:32.219Z,14.70
2018-09-09T19:09:00.705Z,15.50
2018-09-09T19:11:29.030Z,14.13
2018-09-09T19:13:57.412Z,11.87
2018-09-09T19:16:25.817Z,12.43
2018-09-09T19:18:54.148Z,8.47
2018-09-09T19:21:22.526Z,10.10
2018-09-09T19:23:50.800Z,10.87
2018-09-09T19:26:19.188Z,10.60
2018-09-09T19:28:47.604Z,11.87
2018-09-09T19:31:15.948Z,14.13
2018-09-09T19:33:45.321Z,9.60
2018-09-09T19:36:13.649Z,10.53
2018-09-09T19:38:41.993Z,8.67
2018-09-09T19:41:10.333Z,8.33
2018-09-09T19:43:38.684Z,8.83
2018-09-09T19:46:07.069Z,13.13
2018-09-09T19:48:35.410Z,7.40
2018-09-09T19:51:03.806Z,10.80
2018-09-09T19:53:32.121Z,20.77
2018-09-09T19:56:00.513Z,11.57
2018-09-09T19:58:28.947Z,12.53
2018-09-09T20:00:57.265Z,10.27
2018-09-09T20:03:25.621Z,12.53
2018-09-09T20:05:54.072Z,7.20
2018-09-09T20:08:22.406Z,6.23
2018-09-09T20:10:50.764Z,6.23
2018-09-09T20:13:19.107Z,5.00
2018-09-09T20:15:48.487Z,5.43
2018-09-09T20:18:16.859Z,5.07
2018-09-09T20:20:45.181Z,4.80
2018-09-09T20:23:14.574Z,5.73
2018-09-09T20:25:43.023Z,5.93
2018-09-09T20:28:11.311Z,4.50
2018-09-09T20:30:39.847Z,5.03
2018-09-09T20:33:08.225Z,4.77
2018-09-09T20:35:36.518Z,4.97
2018-09-09T20:38:04.850Z,4.87
2018-09-09T20:40:33.158Z,4.30
2018-09-09T20:43:01.494Z,4.30
2018-09-09T20:45:29.817Z,4.40
2018-09-09T20:47:58.171Z,4.57
2018-09-09T20:50:26.633Z,4.23
2018-09-09T20:52:54.969Z,4.07
2018-09-09T20:55:23.240Z,4.17
2018-09-09T20:57:51.562Z,4.10
2018-09-09T21:00:19.927Z,4.53
2018-09-09T21:02:48.289Z,4.27
2018-09-09T21:05:16.987Z,5.03
2018-09-09T21:07:47.715Z,4.73
2018-09-09T21:10:16.046Z,4.17
2018-09-09T21:12:44.750Z,4.27
2018-09-09T21:15:13.891Z,5.00
2018-09-09T21:17:43.003Z,4.20
2018-09-09T21:20:12.508Z,4.50
2018-09-09T21:22:41.448Z,4.40
2018-09-09T21:25:10.062Z,4.77
2018-09-09T21:27:39.631Z,4.60
2018-09-09T21:30:08.035Z,4.30
2018-09-09T21:32:36.654Z,4.13
2018-09-09T21:35:05.853Z,4.43
2018-09-09T21:37:35.582Z,4.70
2018-09-09T21:40:05.342Z,4.03
2018-09-09T21:42:35.524Z,4.40
2018-09-09T21:45:06.075Z,4.53
2018-09-09T21:47:34.463Z,4.20
2018-09-09T21:50:03.655Z,4.37
2018-09-09T21:52:32.746Z,5.27
2018-09-09T21:55:01.969Z,4.23
2018-09-09T21:57:32.357Z,5.00
2018-09-09T22:00:01.305Z,4.80
2018-09-09T22:02:30.714Z,4.60
2018-09-09T22:04:59.061Z,4.50
2018-09-09T22:07:27.450Z,3.93
2018-09-09T22:09:55.801Z,4.60
2018-09-09T22:12:24.849Z,4.67
2018-09-09T22:14:53.163Z,4.43
2018-09-09T22:17:21.499Z,4.77
2018-09-09T22:19:49.809Z,4.67
2018-09-09T22:22:18.169Z,4.97
2018-09-09T22:24:46.459Z,5.00
2018-09-09T22:27:14.801Z,4.73
2018-09-09T22:29:43.133Z,4.60
2018-09-09T22:32:11.454Z,5.17
2018-09-09T22:34:39.762Z,4.87
2018-09-09T22:37:08.087Z,4.10
2018-09-09T22:39:36.488Z,4.53
2018-09-09T22:42:05.654Z,4.97
2018-09-09T22:44:33.981Z,4.60
2018-09-09T22:47:02.317Z,5.40
2018-09-09T22:49:35.062Z,4.47
2018-09-09T22:52:03.604Z,4.20
2018-09-09T22:54:32.021Z,4.50
2018-09-09T22:57:01.054Z,4.50
2018-09-09T22:59:29.374Z,4.57
2018-09-09T23:01:57.709Z,4.80
2018-09-09T23:04:26.043Z,4.43
2018-09-09T23:06:54.362Z,4.23
2018-09-09T23:09:22.690Z,4.23
2018-09-09T23:11:51.018Z,4.23
2018-09-09T23:14:19.390Z,4.23
2018-09-09T23:16:47.783Z,4.30
2018-09-09T23:19:16.146Z,4.63
2018-09-09T23:21:44.447Z,4.77
2018-09-09T23:24:12.793Z,4.77
2018-09-09T23:26:41.155Z,4.20
2018-09-09T23:29:09.502Z,5.27
2018-09-09T23:31:37.857Z,3.93
2018-09-09T23:34:06.231Z,3.60
2018-09-09T23:36:34.590Z,4.33
2018-09-09T23:39:03.035Z,4.43
2018-09-09T23:41:31.347Z,4.70
2018-09-09T23:43:59.657Z,4.83
2018-09-09T23:46:28.010Z,4.50
2018-09-09T23:48:56.348Z,3.63
2018-09-09T23:51:24.641Z,4.67
2018-09-09T23:53:52.921Z,4.50
2018-09-09T23:56:22.289Z,4.13
2018-09-09T23:58:50.913Z,4.57
